Time;durP1;ratioP1;P1;durP2;ratioP2;P2;SDS_P1;SDS_P2;PMS_P1;PMS_P2;Temp;Humidity;BMP_temperature;BMP_pressure;BME280_temperature;BME280_humidity;BME280_pressure;Samples;Min_cycle;Max_cycle;Signal;HPM_P1;HPM_P2
2022/11/07 00:01:25;;;;;;;30.82;21.62;;;;;;;5.71;75.03;101242.81;1700396;82;21520;-74
2022/11/07 00:03:53;;;;;;;25.92;19.55;;;;;;;5.71;74.92;101244.13;1681690;83;21781;-74
2022/11/07 00:06:25;;;;;;;27.17;19.77;;;;;;;5.70;74.66;101244.20;1677534;83;21072;-75
2022/11/07 00:08:55;;;;;;;25.60;19.45;;;;;;;5.69;74.45;101242.47;1688298;83;21110;-74
2022/11/07 00:11:21;;;;;;;23.95;18.42;;;;;;;5.67;74.27;101241.23;1684633;83;21029;-74
2022/11/07 00:13:49;;;;;;;24.47;19.10;;;;;;;5.67;74.10;101234.67;1684801;83;21480;-75
2022/11/07 00:16:18;;;;;;;23.32;18.50;;;;;;;5.65;73.97;101236.98;1686502;83;22239;-74
2022/11/07 00:18:45;;;;;;;22.50;18.02;;;;;;;5.63;73.75;101236.21;1709489;82;21016;-75
2022/11/07 00:21:13;;;;;;;23.67;18.23;;;;;;;5.62;73.60;101242.38;1737705;80;20997;-74
2022/11/07 00:23:43;;;;;;;25.27;18.45;;;;;;;5.60;73.49;101231.12;1736256;81;21029;-75
2022/11/07 00:26:13;;;;;;;26.90;18.98;;;;;;;5.58;73.36;101231.62;1743289;80;21069;-75
2022/11/07 00:28:42;;;;;;;22.52;17.23;;;;;;;5.56;73.31;101226.45;1738232;81;21084;-75
2022/11/07 00:31:12;;;;;;;21.93;17.30;;;;;;;5.57;73.25;101224.69;1714877;82;20917;-75
2022/11/07 00:33:40;;;;;;;20.60;16.42;;;;;;;5.57;73.16;101219.44;1716263;82;21086;-75
2022/11/07 00:36:09;;;;;;;22.15;17.52;;;;;;;5.56;73.04;101218.59;1737244;81;21072;-75
2022/11/07 00:38:37;;;;;;;21.10;17.12;;;;;;;5.54;72.90;101214.34;1689812;82;21106;-76
2022/11/07 00:41:06;;;;;;;24.50;18.23;;;;;;;5.52;72.86;101224.05;1711012;82;22187;-75
2022/11/07 00:43:35;;;;;;;24.50;17.70;;;;;;;5.51;72.80;101219.28;1719155;82;21714;-76
2022/11/07 00:46:04;;;;;;;20.95;16.55;;;;;;;5.51;72.78;101215.34;1703892;82;21005;-76
2022/11/07 00:48:32;;;;;;;21.07;16.45;;;;;;;5.51;72.71;101210.11;1709011;82;20973;-75
2022/11/07 00:51:12;;;;;;;22.77;16.95;;;;;;;5.49;72.63;101213.69;1712555;82;21047;-75
2022/11/07 00:53:40;;;;;;;20.43;16.82;;;;;;;5.48;72.60;101208.91;1712466;82;21405;-76
2022/11/07 00:56:10;;;;;;;20.00;16.15;;;;;;;5.48;72.58;101206.75;1715179;82;21004;-75
2022/11/07 00:58:38;;;;;;;20.02;15.40;;;;;;;5.46;72.52;101207.67;1711472;82;21016;-76
2022/11/07 01:01:11;;;;;;;19.50;15.45;;;;;;;5.44;72.49;101202.97;1712622;82;21095;-75
2022/11/07 01:06:22;;;;;;;18.52;15.75;;;;;;;5.42;72.50;101207.89;1706132;83;21846;-76
2022/11/07 01:08:50;;;;;;;21.37;15.58;;;;;;;5.41;72.51;101207.51;1709835;82;21072;-76
2022/11/07 01:11:17;;;;;;;18.50;15.38;;;;;;;5.41;72.50;101210.13;1710241;82;21044;-76
2022/11/07 01:13:44;;;;;;;19.20;14.93;;;;;;;5.41;72.49;101207.51;1713292;82;21079;-76
2022/11/07 01:16:10;;;;;;;20.25;16.40;;;;;;;5.41;72.50;101212.75;1717567;82;20957;-76
2022/11/07 01:18:37;;;;;;;19.02;15.95;;;;;;;5.39;72.43;101213.25;1718628;82;22098;-76
2022/11/07 01:21:07;;;;;;;19.05;15.35;;;;;;;5.37;72.43;101207.23;1712396;82;21522;-75
2022/11/07 01:23:35;;;;;;;20.85;16.05;;;;;;;5.37;72.45;101205.92;1690212;82;21128;-76
2022/11/07 01:26:06;;;;;;;21.57;15.78;;;;;;;5.36;72.43;101210.78;1713892;82;20973;-76
2022/11/07 01:28:34;;;;;;;19.30;16.07;;;;;;;5.37;72.46;101213.32;1690146;82;21028;-76
2022/11/07 01:31:04;;;;;;;20.52;15.95;;;;;;;5.38;72.45;101214.17;1713512;82;20949;-74
2022/11/07 01:33:31;;;;;;;19.15;16.32;;;;;;;5.39;72.41;101215.88;1697331;82;21134;-74
2022/11/07 01:36:01;;;;;;;21.80;16.82;;;;;;;5.39;72.43;101211.48;1712444;82;21016;-74
2022/11/07 01:38:29;;;;;;;22.20;17.20;;;;;;;5.40;72.39;101207.09;1722025;82;20973;-75
2022/11/07 01:43:46;;;;;;;20.68;16.30;;;;;;;5.38;72.36;101202.38;1710029;82;22003;-75
2022/11/07 01:46:14;;;;;;;20.32;16.15;;;;;;;5.36;72.32;101209.00;1712549;82;21061;-75
2022/11/07 01:48:45;;;;;;;22.17;16.85;;;;;;;5.33;72.33;101200.45;1711343;82;20979;-75
2022/11/07 01:51:11;;;;;;;22.87;16.75;;;;;;;5.31;72.34;101201.83;1712437;82;21428;-75
2022/11/07 01:53:38;;;;;;;21.70;16.00;;;;;;;5.29;72.30;101200.17;1713251;82;21020;-75
2022/11/07 01:56:06;;;;;;;22.40;17.20;;;;;;;5.27;72.29;101198.09;1742030;82;21789;-75
2022/11/07 01:58:33;;;;;;;21.25;16.73;;;;;;;5.23;72.22;101196.07;1713644;82;21445;-75
2022/11/07 02:01:00;;;;;;;20.82;16.67;;;;;;;5.21;72.23;101194.41;1741350;82;21047;-75
2022/11/07 02:03:27;;;;;;;20.97;17.32;;;;;;;5.18;72.25;101199.34;1710212;82;21256;-75
2022/11/07 02:05:58;;;;;;;21.75;16.32;;;;;;;5.15;72.23;101196.41;1738537;80;21102;-74
2022/11/07 02:08:24;;;;;;;22.73;17.62;;;;;;;5.14;72.20;101193.39;1722191;82;21833;-74
2022/11/07 02:10:51;;;;;;;22.25;17.07;;;;;;;5.14;72.24;101193.86;1701557;82;21008;-74
2022/11/07 02:13:28;;;;;;;21.93;16.93;;;;;;;5.12;72.25;101196.55;1743919;80;20993;-74
2022/11/07 02:15:58;;;;;;;21.70;16.80;;;;;;;5.12;72.21;101193.92;1742717;80;21027;-75
2022/11/07 02:18:26;;;;;;;21.02;17.07;;;;;;;5.10;72.19;101196.20;1706374;83;21068;-75
2022/11/07 02:20:56;;;;;;;21.10;17.42;;;;;;;5.09;72.13;101197.97;1702074;83;21916;-74
2022/11/07 02:23:51;;;;;;;23.40;17.55;;;;;;;5.07;72.12;101201.12;1718732;82;21396;-75
2022/11/07 02:26:19;;;;;;;22.62;17.70;;;;;;;5.05;72.16;101198.19;1717731;82;20991;-73
2022/11/07 02:28:45;;;;;;;21.35;17.32;;;;;;;5.05;72.16;101190.33;1696726;82;21633;-75
2022/11/07 02:31:12;;;;;;;20.23;17.52;;;;;;;5.04;72.14;101196.02;1717841;82;20949;-74
2022/11/07 02:33:40;;;;;;;23.02;18.10;;;;;;;5.02;72.13;101192.63;1717178;82;21841;-74
2022/11/07 02:36:11;;;;;;;22.58;17.37;;;;;;;5.01;72.08;101194.83;1727981;80;21455;-74
2022/11/07 02:38:37;;;;;;;24.12;17.70;;;;;;;4.99;72.06;101197.97;1717215;80;21005;-74
2022/11/07 02:41:13;;;;;;;21.90;17.40;;;;;;;4.98;72.03;101196.28;1728707;80;21063;-75
2022/11/07 02:43:53;;;;;;;21.37;17.48;;;;;;;4.97;71.99;101201.12;1734666;80;21009;-75
2022/11/07 02:46:20;;;;;;;22.42;18.32;;;;;;;4.96;71.96;101198.12;1738917;82;22642;-74
2022/11/07 02:48:50;;;;;;;22.58;18.27;;;;;;;4.97;71.96;101201.58;1739084;82;20985;-74
2022/11/07 02:51:17;;;;;;;22.60;17.75;;;;;;;4.96;71.86;101203.35;1737331;81;20993;-74
2022/11/07 02:53:45;;;;;;;21.48;17.85;;;;;;;4.93;71.86;101200.88;1735285;80;21527;-75
2022/11/07 02:56:12;;;;;;;23.87;18.15;;;;;;;4.91;71.81;101197.45;1714846;80;20950;-75
2022/11/07 02:58:38;;;;;;;22.70;18.10;;;;;;;4.87;71.76;101197.20;1737559;82;21801;-75
2022/11/07 03:01:08;;;;;;;21.15;17.48;;;;;;;4.85;71.77;101194.66;1732273;82;21518;-75
2022/11/07 03:03:37;;;;;;;21.90;17.60;;;;;;;4.83;71.76;101199.56;1734317;80;21047;-75
2022/11/07 03:06:06;;;;;;;25.17;17.98;;;;;;;4.80;71.74;101197.91;1706391;82;21048;-74
2022/11/07 03:08:33;;;;;;;24.27;19.15;;;;;;;4.80;71.80;101194.44;1738466;81;20998;-75
2022/11/07 03:11:01;;;;;;;22.93;18.70;;;;;;;4.80;71.77;101198.37;1703151;82;22032;-74
2022/11/07 03:13:28;;;;;;;23.32;18.52;;;;;;;4.79;71.76;101190.98;1770025;79;20986;-74
2022/11/07 03:15:55;;;;;;;24.47;19.30;;;;;;;4.79;71.76;101194.05;1775935;79;21037;-74
2022/11/07 03:18:22;;;;;;;23.92;19.10;;;;;;;4.78;71.77;101188.42;1741273;80;21076;-74
2022/11/07 03:20:48;;;;;;;24.10;19.60;;;;;;;4.79;71.75;101183.58;1732587;81;21000;-74
2022/11/07 03:23:15;;;;;;;24.05;19.85;;;;;;;4.77;71.66;101184.96;1712627;81;21882;-74
2022/11/07 03:25:42;;;;;;;22.98;18.98;;;;;;;4.73;71.61;101178.59;1718271;83;20961;-74
2022/11/07 03:28:10;;;;;;;25.12;21.00;;;;;;;4.72;71.64;101179.05;1715838;82;21013;-74
2022/11/07 03:30:36;;;;;;;27.98;20.85;;;;;;;4.68;71.57;101170.11;1743944;82;21546;-74
2022/11/07 03:33:03;;;;;;;26.75;21.20;;;;;;;4.65;71.57;101167.17;1740956;80;21040;-73
2022/11/07 03:35:30;;;;;;;28.57;22.07;;;;;;;4.60;71.58;101175.20;1742165;82;21842;-74
2022/11/07 03:37:58;;;;;;;24.40;19.98;;;;;;;4.56;71.59;101168.86;1740733;80;21035;-74
2022/11/07 03:40:25;;;;;;;29.65;23.75;;;;;;;4.52;71.59;101173.35;1744265;80;21079;-74
2022/11/07 03:42:52;;;;;;;34.98;26.97;;;;;;;4.49;71.60;101178.72;1743655;82;20985;-74
2022/11/07 03:45:18;;;;;;;34.73;26.48;;;;;;;4.43;71.61;101175.04;1742091;80;21091;-74
2022/11/07 03:47:45;;;;;;;35.83;26.65;;;;;;;4.40;71.66;101173.02;1743358;80;21806;-74
2022/11/07 03:50:15;;;;;;;33.40;27.42;;;;;;;4.35;71.72;101171.06;1741606;80;21012;-74
2022/11/07 03:52:41;;;;;;;36.68;28.15;;;;;;;4.31;71.80;101179.47;1738505;80;21070;-75
2022/11/07 03:55:09;;;;;;;37.95;29.90;;;;;;;4.26;71.83;101170.52;1732415;80;21141;-74
2022/11/07 03:57:36;;;;;;;35.30;28.52;;;;;;;4.23;71.88;101173.23;1737935;82;21067;-74
2022/11/07 04:00:06;;;;;;;38.53;28.83;;;;;;;4.21;71.96;101172.91;1740493;80;21789;-74
2022/11/07 04:02:34;;;;;;;38.25;27.35;;;;;;;4.17;72.00;101168.27;1729838;81;21095;-74
2022/11/07 04:05:01;;;;;;;36.17;27.60;;;;;;;4.16;72.02;101169.65;1735844;80;20932;-74
2022/11/07 04:07:27;;;;;;;35.05;27.02;;;;;;;4.10;72.05;101169.88;1740610;80;21009;-74
2022/11/07 04:09:53;;;;;;;38.48;28.65;;;;;;;4.05;72.13;101172.66;1735468;80;21071;-74
2022/11/07 04:17:50;;;;;;;48.55;33.67;;;;;;;3.93;72.36;101181.84;1730819;80;21008;-74
2022/11/07 04:20:17;;;;;;;47.30;34.78;;;;;;;3.91;72.45;101173.67;1735770;81;21001;-74
2022/11/07 04:22:43;;;;;;;48.15;35.23;;;;;;;3.88;72.48;101184.26;1709870;82;21006;-75
2022/11/07 04:25:10;;;;;;;45.70;30.45;;;;;;;3.86;72.55;101181.70;1701983;82;21735;-75
2022/11/07 04:27:42;;;;;;;41.58;30.27;;;;;;;3.82;72.62;101180.11;1711836;82;21134;-75
2022/11/07 04:30:18;;;;;;;40.75;30.02;;;;;;;3.78;72.67;101177.23;1745950;80;21023;-74
2022/11/07 04:32:48;;;;;;;38.00;27.65;;;;;;;3.76;72.73;101171.64;1743759;80;21657;-75
2022/11/07 04:35:15;;;;;;;41.13;28.98;;;;;;;3.73;72.80;101168.70;1721457;81;21038;-75
2022/11/07 04:37:42;;;;;;;38.88;27.42;;;;;;;3.71;72.87;101168.77;1719376;83;21743;-74
2022/11/07 04:40:10;;;;;;;36.70;26.70;;;;;;;3.69;72.92;101164.52;1722059;81;20976;-75
2022/11/07 04:42:37;;;;;;;36.50;27.42;;;;;;;3.70;72.96;101170.13;1721269;81;21174;-74
2022/11/07 04:45:05;;;;;;;39.33;28.20;;;;;;;3.68;72.97;101168.04;1720638;81;21050;-75
2022/11/07 04:47:32;;;;;;;35.95;26.17;;;;;;;3.66;72.97;101173.30;1722131;81;20979;-75
2022/11/07 04:49:59;;;;;;;38.15;26.57;;;;;;;3.65;73.00;101172.05;1720499;81;22165;-75
2022/11/07 04:52:26;;;;;;;37.35;26.52;;;;;;;3.63;72.98;101173.88;1722980;81;21419;-75
2022/11/07 04:54:52;;;;;;;40.78;29.10;;;;;;;3.60;73.01;101180.08;1723961;81;20968;-74
2022/11/07 04:57:19;;;;;;;37.58;28.55;;;;;;;3.56;73.05;101177.17;1714978;82;20989;-75
2022/11/07 04:59:46;;;;;;;36.88;28.47;;;;;;;3.53;73.10;101185.13;1720049;81;21050;-73
2022/11/07 05:02:13;;;;;;;28.52;22.45;;;;;;;3.51;73.18;101178.27;1727970;81;21919;-74
2022/11/07 05:04:40;;;;;;;27.77;21.60;;;;;;;3.48;73.20;101186.23;1716804;81;21058;-73
2022/11/07 05:07:07;;;;;;;25.57;20.40;;;;;;;3.46;73.24;101188.87;1721521;81;21036;-74
2022/11/07 05:09:34;;;;;;;27.90;20.30;;;;;;;3.44;73.27;101188.08;1714746;83;21067;-75
2022/11/07 05:12:01;;;;;;;25.55;20.40;;;;;;;3.42;73.30;101186.84;1721813;81;21002;-74
2022/11/07 05:14:30;;;;;;;26.42;20.08;;;;;;;3.42;73.36;101188.14;1719553;81;21958;-74
2022/11/07 05:16:57;;;;;;;23.38;17.90;;;;;;;3.42;73.35;101180.31;1717502;81;20889;-75
2022/11/07 05:19:23;;;;;;;25.85;19.65;;;;;;;3.41;73.42;101181.22;1715439;81;21408;-75
2022/11/07 05:24:35;;;;;;;25.68;18.92;;;;;;;3.42;73.51;101193.82;1710020;82;21099;-73
2022/11/07 05:27:02;;;;;;;23.98;19.57;;;;;;;3.42;73.52;101194.67;1707771;82;21736;-74
2022/11/07 05:29:29;;;;;;;32.65;19.95;;;;;;;3.42;73.52;101202.50;1711599;82;20947;-74
2022/11/07 05:31:56;;;;;;;24.20;19.37;;;;;;;3.44;73.52;101203.30;1709707;82;21055;-74
2022/11/07 05:34:23;;;;;;;24.60;18.23;;;;;;;3.45;73.52;101202.38;1708875;82;21064;-74
2022/11/07 05:36:50;;;;;;;25.97;19.48;;;;;;;3.45;73.53;101205.45;1714323;82;20981;-74
2022/11/07 05:39:17;;;;;;;24.77;19.25;;;;;;;3.44;73.54;101207.21;1705410;82;21927;-73
2022/11/07 05:41:44;;;;;;;24.40;19.55;;;;;;;3.44;73.55;101209.82;1710017;82;21566;-74
2022/11/07 05:44:10;;;;;;;24.25;18.45;;;;;;;3.45;73.54;101214.59;1712776;82;20943;-74
2022/11/07 05:46:38;;;;;;;24.05;18.57;;;;;;;3.46;73.51;101214.98;1697252;82;21064;-74
2022/11/07 05:49:04;;;;;;;25.23;19.40;;;;;;;3.47;73.57;101217.98;1703035;82;20956;-74
2022/11/07 05:51:31;;;;;;;22.75;18.00;;;;;;;3.50;73.59;101221.81;1718030;82;22030;-73
2022/11/07 05:53:58;;;;;;;23.05;17.70;;;;;;;3.52;73.58;101219.99;1703884;82;21075;-74
2022/11/07 05:56:24;;;;;;;24.15;18.92;;;;;;;3.53;73.57;101220.39;1711447;82;21032;-74
2022/11/07 05:58:51;;;;;;;28.15;18.95;;;;;;;3.54;73.58;101222.55;1712099;82;20986;-75
2022/11/07 06:01:19;;;;;;;23.50;18.07;;;;;;;3.55;73.60;101218.56;1710947;82;21109;-74
2022/11/07 06:03:46;;;;;;;26.93;19.52;;;;;;;3.60;73.70;101217.95;1689781;82;21854;-74
2022/11/07 06:06:12;;;;;;;24.77;19.35;;;;;;;3.65;73.64;101222.54;1715245;82;21065;-73
2022/11/07 06:08:39;;;;;;;23.95;18.65;;;;;;;3.69;73.58;101221.53;1710740;82;21086;-77
2022/11/07 06:11:05;;;;;;;24.25;18.62;;;;;;;3.76;73.60;101215.60;1709694;82;21032;-77
2022/11/07 06:13:32;;;;;;;23.65;18.95;;;;;;;3.86;73.54;101220.03;1713377;82;20969;-73
2022/11/07 06:15:59;;;;;;;25.00;18.95;;;;;;;3.92;73.46;101219.34;1708914;81;22454;-74
2022/11/07 06:18:26;;;;;;;23.55;18.90;;;;;;;3.97;73.18;101221.80;1708556;82;21035;-74
2022/11/07 06:20:53;;;;;;;23.27;19.15;;;;;;;3.99;72.95;101221.28;1710962;82;21024;-76
2022/11/07 06:23:21;;;;;;;24.02;19.15;;;;;;;4.02;72.76;101231.61;1713107;82;21035;-74
2022/11/07 06:25:50;;;;;;;25.10;18.48;;;;;;;4.03;72.70;101220.23;1689799;83;21022;-74
2022/11/07 06:28:17;;;;;;;26.90;20.05;;;;;;;4.09;72.73;101219.16;1711328;82;22240;-74
2022/11/07 06:30:44;;;;;;;23.30;18.32;;;;;;;4.14;72.64;101218.05;1713977;82;21678;-75
2022/11/07 06:33:14;;;;;;;25.08;18.52;;;;;;;4.17;72.61;101214.03;1710647;82;21372;-76
2022/11/07 06:35:41;;;;;;;23.27;18.50;;;;;;;4.19;72.42;101208.28;1735311;80;21025;-77
2022/11/07 06:38:11;;;;;;;22.75;18.25;;;;;;;4.21;72.37;101209.52;1736094;81;21017;-74
2022/11/07 06:40:39;;;;;;;23.95;18.23;;;;;;;4.19;72.03;101212.66;1735288;80;21860;-76
2022/11/07 06:43:15;;;;;;;23.27;18.62;;;;;;;4.17;72.07;101203.57;1735141;82;21507;-76
2022/11/07 06:45:43;;;;;;;26.35;19.60;;;;;;;4.19;72.09;101204.81;1735106;81;20956;-77
2022/11/07 06:48:09;;;;;;;24.90;18.77;;;;;;;4.24;72.19;101205.00;1735288;80;21059;-70
2022/11/07 06:50:38;;;;;;;58.38;22.95;;;;;;;4.27;72.04;101202.75;1735184;80;21010;-71
2022/11/07 06:53:09;;;;;;;48.10;22.13;;;;;;;4.27;71.89;101203.59;1735943;81;21838;-72
2022/11/07 06:55:37;;;;;;;29.05;19.90;;;;;;;4.31;71.98;101197.31;1735812;80;22126;-70
2022/11/07 06:58:04;;;;;;;24.23;18.55;;;;;;;4.34;71.82;101196.80;1739726;82;20937;-69
2022/11/07 07:00:32;;;;;;;25.92;18.67;;;;;;;4.40;71.87;101199.17;1736931;80;21455;-72
2022/11/07 07:02:59;;;;;;;40.03;21.33;;;;;;;4.44;71.62;101194.20;1744904;80;20973;-74
2022/11/07 07:05:26;;;;;;;25.30;19.57;;;;;;;4.49;71.64;101193.11;1740957;80;21909;-73
2022/11/07 07:07:54;;;;;;;24.37;20.02;;;;;;;4.58;71.66;101195.80;1729586;81;20992;-73
2022/11/07 07:10:23;;;;;;;23.73;18.98;;;;;;;4.65;71.43;101196.41;1736893;81;20944;-72
2022/11/07 07:12:55;;;;;;;41.00;21.23;;;;;;;4.72;71.19;101195.22;1728330;80;20972;-75
2022/11/07 07:15:22;;;;;;;26.52;18.42;;;;;;;4.75;70.93;101198.58;1735292;80;21489;-74
2022/11/07 07:17:49;;;;;;;198.28;33.20;;;;;;;4.78;70.60;101197.59;1737324;80;22556;-77
2022/11/07 07:20:15;;;;;;;27.82;20.70;;;;;;;4.79;70.52;101197.98;1734180;80;21048;-74
2022/11/07 07:22:45;;;;;;;143.82;28.27;;;;;;;4.83;70.59;101198.26;1738135;81;21112;-74
2022/11/07 07:25:11;;;;;;;47.15;20.40;;;;;;;4.89;70.43;101200.59;1720305;81;21015;-71
2022/11/07 07:27:38;;;;;;;64.40;21.73;;;;;;;4.93;70.21;101193.48;1719112;81;20902;-72
2022/11/07 07:30:07;;;;;;;23.40;18.50;;;;;;;4.94;70.10;101193.88;1734090;81;21812;-72
2022/11/07 07:32:35;;;;;;;23.42;18.20;;;;;;;4.95;69.96;101187.26;1773144;79;21061;-73
2022/11/07 07:35:05;;;;;;;24.55;18.62;;;;;;;4.99;70.00;101191.43;1739587;80;20996;-74
2022/11/07 07:37:32;;;;;;;25.35;19.90;;;;;;;5.04;69.84;101195.17;1708801;82;21398;-73
2022/11/07 07:40:00;;;;;;;27.13;20.17;;;;;;;5.05;69.70;101192.48;1698348;82;21103;-74
2022/11/07 07:42:27;;;;;;;25.90;19.55;;;;;;;5.11;69.71;101196.59;1705869;82;21872;-71
2022/11/07 07:44:55;;;;;;;21.97;17.32;;;;;;;5.13;69.58;101196.94;1733827;81;20942;-75
2022/11/07 07:47:22;;;;;;;19.87;16.27;;;;;;;5.17;69.41;101197.18;1670508;83;21084;-74
2022/11/07 07:49:48;;;;;;;22.70;16.27;;;;;;;5.19;69.39;101204.97;1709994;82;21591;-73
2022/11/07 07:52:15;;;;;;;20.25;16.35;;;;;;;5.20;69.28;101195.34;1735053;80;21082;-72
2022/11/07 07:54:42;;;;;;;22.80;16.55;;;;;;;5.25;69.40;101202.09;1710022;82;21816;-71
2022/11/07 07:57:08;;;;;;;20.77;16.10;;;;;;;5.30;69.03;101198.79;1696757;82;21059;-71
2022/11/07 07:59:36;;;;;;;19.65;16.15;;;;;;;5.28;68.85;101193.23;1714783;82;21008;-71
2022/11/07 08:02:04;;;;;;;20.23;16.45;;;;;;;5.26;68.70;101195.92;1734822;80;21008;-72
2022/11/07 08:04:30;;;;;;;25.15;17.77;;;;;;;5.29;68.78;101204.09;1733588;80;21035;-70
2022/11/07 08:06:57;;;;;;;20.27;16.17;;;;;;;5.35;68.95;101198.60;1734327;80;21836;-72
2022/11/07 08:09:25;;;;;;;20.95;16.77;;;;;;;5.42;68.73;101196.11;1738257;80;21504;-72
2022/11/07 08:11:52;;;;;;;21.45;16.30;;;;;;;5.50;68.80;101198.36;1722825;82;21064;-72
2022/11/07 08:14:19;;;;;;;22.05;17.20;;;;;;;5.55;68.79;101195.93;1733428;82;21288;-73
2022/11/07 08:16:46;;;;;;;20.17;16.07;;;;;;;5.59;68.47;101198.79;1733071;81;21028;-73
2022/11/07 08:19:13;;;;;;;21.00;15.88;;;;;;;5.64;68.31;101207.30;1731249;81;21878;-73
2022/11/07 08:21:42;;;;;;;21.85;16.77;;;;;;;5.65;68.06;101202.45;1720183;80;21083;-73
2022/11/07 08:24:09;;;;;;;20.00;15.48;;;;;;;5.70;68.19;101203.11;1719602;82;21012;-75
2022/11/07 08:26:37;;;;;;;20.75;16.27;;;;;;;5.74;67.81;101198.56;1739766;81;21106;-76
2022/11/07 08:29:04;;;;;;;21.77;17.05;;;;;;;5.71;67.61;101202.64;1722403;82;21043;-73
2022/11/07 08:31:31;;;;;;;18.92;15.70;;;;;;;5.70;67.52;101197.86;1749452;81;21768;-73
2022/11/07 08:33:59;;;;;;;20.68;15.38;;;;;;;5.70;67.79;101197.86;1742603;80;21019;-75
2022/11/07 08:36:26;;;;;;;22.17;17.02;;;;;;;5.78;67.74;101199.26;1727596;80;20971;-76
2022/11/07 08:38:53;;;;;;;22.65;17.92;;;;;;;5.81;67.75;101201.30;1743370;82;21595;-77
2022/11/07 08:41:19;;;;;;;21.35;16.55;;;;;;;5.81;67.62;101204.38;1710009;82;21037;-76
2022/11/07 08:43:48;;;;;;;20.15;16.37;;;;;;;5.83;67.67;101204.69;1685912;83;21834;-76
2022/11/07 08:46:14;;;;;;;20.95;17.12;;;;;;;5.83;67.49;101203.37;1712075;82;21014;-74
2022/11/07 08:48:41;;;;;;;21.07;17.45;;;;;;;5.81;67.35;101201.30;1740149;80;21063;-73
2022/11/07 08:51:08;;;;;;;21.48;16.62;;;;;;;5.81;67.32;101197.83;1739306;82;21097;-74
2022/11/07 08:53:34;;;;;;;23.57;16.97;;;;;;;5.84;67.41;101200.30;1737538;80;21039;-75
2022/11/07 08:56:04;;;;;;;20.17;16.40;;;;;;;5.87;67.23;101193.59;1735908;80;21772;-74
2022/11/07 08:58:33;;;;;;;21.23;16.35;;;;;;;5.91;67.19;101201.29;1733453;80;21031;-73
2022/11/07 09:01:02;;;;;;;18.87;15.98;;;;;;;5.94;67.09;101198.98;1739436;82;21099;-73
2022/11/07 09:03:29;;;;;;;24.18;18.17;;;;;;;5.99;67.17;101198.31;1727809;82;21136;-73
2022/11/07 09:05:57;;;;;;;23.77;18.00;;;;;;;6.03;67.08;101199.86;1778232;79;20920;-75
2022/11/07 09:08:24;;;;;;;21.82;17.87;;;;;;;6.06;67.14;101203.63;1765494;79;21827;-73
2022/11/07 09:10:50;;;;;;;21.20;16.87;;;;;;;6.14;67.09;101196.72;1769699;80;21255;-72
2022/11/07 09:13:19;;;;;;;22.40;17.57;;;;;;;6.21;66.94;101203.37;1775756;78;21047;-71
2022/11/07 09:15:45;;;;;;;24.40;19.17;;;;;;;6.22;66.74;101205.92;1777873;78;21019;-73
2022/11/07 09:18:12;;;;;;;24.98;18.30;;;;;;;6.23;66.72;101201.52;1760459;80;21003;-72
2022/11/07 09:20:39;;;;;;;22.98;17.95;;;;;;;6.26;66.64;101205.30;1772077;78;21774;-71
2022/11/07 09:23:08;;;;;;;22.22;17.25;;;;;;;6.23;66.23;101197.13;1744068;80;21028;-71
2022/11/07 09:25:35;;;;;;;22.90;17.98;;;;;;;6.25;66.07;101197.90;1733534;82;21057;-71
2022/11/07 09:28:04;;;;;;;23.85;17.07;;;;;;;6.27;66.12;101194.77;1737307;82;21502;-71
2022/11/07 09:30:30;;;;;;;20.82;16.52;;;;;;;6.33;65.94;101194.91;1717916;82;21498;-71
2022/11/07 09:32:58;;;;;;;22.42;16.62;;;;;;;6.31;65.95;101194.98;1707927;82;21929;-73
2022/11/07 09:35:26;;;;;;;20.68;17.35;;;;;;;6.30;65.86;101191.98;1710777;82;21023;-72
2022/11/07 09:37:52;;;;;;;24.52;17.92;;;;;;;6.28;66.04;101189.05;1701601;82;21520;-74
2022/11/07 09:40:50;;;;;;;22.67;16.93;;;;;;;6.28;66.24;101183.80;1675130;83;21023;-74
2022/11/07 09:43:31;;;;;;;23.15;17.70;;;;;;;6.34;66.49;101181.33;1699562;84;21047;-73
2022/11/07 09:46:31;;;;;;;21.87;17.62;;;;;;;6.37;66.19;101172.86;1678045;84;21794;-74
2022/11/07 09:49:29;;;;;;;21.70;18.05;;;;;;;6.33;66.01;101177.00;1690367;84;21014;-73
2022/11/07 09:52:18;;;;;;;22.55;17.80;;;;;;;6.29;66.16;101171.92;1739596;81;21034;-71
2022/11/07 09:55:02;;;;;;;23.45;17.82;;;;;;;6.27;66.31;101165.02;1734616;80;21442;-70
2022/11/07 09:57:34;;;;;;;21.02;16.65;;;;;;;6.24;66.36;101163.88;1734090;81;21024;-71
2022/11/07 10:00:10;;;;;;;22.35;18.17;;;;;;;6.19;66.33;101153.62;1747138;80;21935;-69
2022/11/07 10:02:39;;;;;;;24.10;18.13;;;;;;;6.16;66.51;101151.59;1757048;80;21472;-69
2022/11/07 10:05:08;;;;;;;28.75;20.95;;;;;;;6.17;66.46;101142.79;1742230;80;20980;-69
2022/11/07 10:07:59;;;;;;;26.82;20.20;;;;;;;6.16;66.62;101135.84;1749613;80;21070;-69
2022/11/07 10:10:49;;;;;;;26.35;20.80;;;;;;;6.17;66.70;101133.15;1741801;82;21091;-69
2022/11/07 10:13:54;;;;;;;23.52;17.52;;;;;;;6.26;66.83;101133.16;1739517;81;23406;-69
2022/11/07 10:17:01;;;;;;;32.08;20.27;;;;;;;6.29;66.82;101135.66;1715076;81;21688;-69
2022/11/07 10:20:00;;;;;;;28.27;19.02;;;;;;;6.24;66.73;101121.44;1737775;80;21086;-69
2022/11/07 10:22:47;;;;;;;26.25;18.92;;;;;;;6.26;66.88;101119.58;1756048;79;21077;-68
2022/11/07 10:25:22;;;;;;;26.77;19.95;;;;;;;6.30;66.90;101118.52;1768681;80;21057;-69
2022/11/07 10:30:58;;;;;;;24.45;18.82;;;;;;;6.36;67.00;101117.34;1729042;80;21068;-68
2022/11/07 10:33:55;;;;;;;39.33;26.25;;;;;;;6.46;66.90;101117.27;1753445;80;21030;-70
2022/11/07 10:36:28;;;;;;;53.00;29.63;;;;;;;6.53;66.53;101117.82;1733099;80;21062;-70
2022/11/07 10:38:54;;;;;;;44.38;26.30;;;;;;;6.58;66.19;101111.42;1754804;80;21064;-69
2022/11/07 10:41:24;;;;;;;91.12;41.50;;;;;;;6.60;65.70;101113.50;1737374;80;21869;-70
2022/11/07 10:44:08;;;;;;;77.55;38.73;;;;;;;6.63;65.66;101118.20;1751418;80;21036;-69
2022/11/07 10:46:45;;;;;;;73.15;37.45;;;;;;;6.65;65.41;101108.00;1749201;80;21030;-68
2022/11/07 10:49:29;;;;;;;29.48;21.75;;;;;;;6.71;65.20;101102.44;1751241;80;22150;-69
2022/11/07 10:52:17;;;;;;;25.12;19.05;;;;;;;6.69;64.88;101091.64;1732728;82;21117;-69
2022/11/07 10:54:45;;;;;;;25.62;18.87;;;;;;;6.70;64.99;101091.56;1761461;80;22864;-69
2022/11/07 10:57:17;;;;;;;25.08;18.15;;;;;;;6.65;64.20;101081.75;1776352;80;21025;-69
2022/11/07 10:59:54;;;;;;;24.70;19.77;;;;;;;6.59;64.44;101083.39;1761771;80;21022;-69
2022/11/07 11:02:26;;;;;;;24.70;19.37;;;;;;;6.59;64.34;101075.52;1716457;81;21103;-69
2022/11/07 11:04:57;;;;;;;24.47;18.98;;;;;;;6.60;64.42;101067.56;1736151;81;21057;-70
2022/11/07 11:07:34;;;;;;;27.32;20.82;;;;;;;6.64;64.31;101059.52;1763005;81;21767;-70
2022/11/07 11:10:00;;;;;;;27.15;20.02;;;;;;;6.63;64.35;101062.61;1763259;81;21036;-69
2022/11/07 11:12:32;;;;;;;27.07;19.17;;;;;;;6.66;64.31;101060.28;1763010;81;21492;-70
2022/11/07 11:15:10;;;;;;;25.40;19.00;;;;;;;6.66;64.36;101057.22;1740158;81;21025;-70
2022/11/07 11:17:37;;;;;;;27.27;20.32;;;;;;;6.70;64.43;101061.38;1762857;81;21033;-69
2022/11/07 11:20:06;;;;;;;27.60;20.45;;;;;;;6.71;64.37;101053.87;1762800;80;21926;-70
2022/11/07 11:22:38;;;;;;;27.65;20.37;;;;;;;6.70;64.21;101048.24;1782945;79;21007;-70
2022/11/07 11:25:19;;;;;;;25.72;20.45;;;;;;;6.67;64.23;101045.80;1782590;79;21045;-70
2022/11/07 11:27:58;;;;;;;26.05;20.27;;;;;;;6.66;64.46;101041.91;1784195;80;21079;-70
2022/11/07 11:30:25;;;;;;;27.48;19.05;;;;;;;6.68;64.96;101034.83;1733672;82;21075;-69
2022/11/07 11:33:02;;;;;;;23.27;19.17;;;;;;;6.70;65.41;101035.58;1704977;82;21913;-69
2022/11/07 11:35:45;;;;;;;23.32;18.82;;;;;;;6.75;65.58;101046.20;1734495;82;21002;-69
2022/11/07 11:38:28;;;;;;;24.97;19.30;;;;;;;6.71;65.33;101042.53;1726627;81;21515;-69
2022/11/07 11:40:58;;;;;;;23.53;18.30;;;;;;;6.60;65.47;101034.75;1746093;82;21358;-69
2022/11/07 11:43:29;;;;;;;24.27;19.37;;;;;;;6.56;65.77;101026.67;1745757;82;21047;-69
2022/11/07 11:46:05;;;;;;;26.20;18.62;;;;;;;6.55;65.82;101030.20;1745797;82;22455;-69